Time;durP1;ratioP1;P1;durP2;ratioP2;P2;SDS_P1;SDS_P2;PMS_P1;PMS_P2;Temp;Humidity;BMP_temperature;BMP_pressure;BME280_temperature;BME280_humidity;BME280_pressure;Samples;Min_cycle;Max_cycle;Signal;HPM_P1;HPM_P2
2022/07/06 00:01:16;;;;;;;8.13;4.53;;;;;;;23.70;55.01;98636.84;5119756;28;20495;-92
2022/07/06 00:03:42;;;;;;;10.23;5.10;;;;;;;23.71;54.75;98636.72;5118325;28;20039;-90
2022/07/06 00:06:08;;;;;;;11.65;5.15;;;;;;;23.76;54.93;98639.94;5118135;28;20487;-92
2022/07/06 00:08:34;;;;;;;8.13;5.70;;;;;;;23.83;56.13;98645.69;5119144;28;20061;-91
2022/07/06 00:11:00;;;;;;;8.13;5.07;;;;;;;23.81;56.28;98631.38;5121992;28;20409;-93
2022/07/06 00:13:26;;;;;;;9.52;5.07;;;;;;;23.96;56.08;98637.38;5120400;28;20447;-91
2022/07/06 00:15:52;;;;;;;9.13;5.22;;;;;;;23.97;56.26;98642.69;5120870;28;20059;-93
2022/07/06 00:18:19;;;;;;;11.35;4.88;;;;;;;23.93;56.32;98629.50;5123335;28;20074;-91
2022/07/06 00:20:45;;;;;;;8.82;5.30;;;;;;;23.92;56.25;98635.91;5118559;28;20043;-91
2022/07/06 00:23:11;;;;;;;9.60;4.70;;;;;;;23.88;56.87;98645.34;5119463;28;20502;-91
2022/07/06 00:25:38;;;;;;;8.25;4.97;;;;;;;23.90;57.01;98668.66;5116555;27;20501;-90
2022/07/06 00:28:04;;;;;;;7.30;4.78;;;;;;;23.81;57.63;98663.97;5122384;28;20092;-90
2022/07/06 00:30:30;;;;;;;9.02;4.75;;;;;;;23.69;58.28;98667.69;5121115;28;20122;-90
2022/07/06 00:32:58;;;;;;;7.80;4.57;;;;;;;23.57;57.66;98662.31;5118066;28;20131;-91
2022/07/06 00:35:25;;;;;;;9.40;4.88;;;;;;;23.43;57.87;98651.69;5117793;28;20039;-91
2022/07/06 00:37:51;;;;;;;10.73;5.43;;;;;;;23.43;58.71;98669.84;5108325;28;20043;-91
2022/07/06 00:40:17;;;;;;;8.88;5.45;;;;;;;23.21;58.72;98649.88;5105233;28;20036;-93
2022/07/06 00:42:44;;;;;;;7.32;4.85;;;;;;;23.27;59.15;98664.78;5106680;28;20113;-89
2022/07/06 00:45:11;;;;;;;7.30;5.13;;;;;;;23.16;59.27;98655.69;5102949;28;20088;-90
2022/07/06 00:47:37;;;;;;;8.57;5.00;;;;;;;23.12;59.80;98653.34;5108644;28;20042;-90
2022/07/06 00:53:05;;;;;;;8.13;5.00;;;;;;;23.01;60.42;98661.47;5130359;27;20352;-91
2022/07/06 00:55:40;;;;;;;8.40;5.25;;;;;;;22.91;60.49;98659.47;5132605;27;20086;-91
2022/07/06 00:58:08;;;;;;;9.02;4.95;;;;;;;22.74;61.17;98639.09;5130220;28;20043;-91
2022/07/06 01:00:34;;;;;;;8.40;5.18;;;;;;;22.73;60.78;98644.66;5130762;28;20511;-91
2022/07/06 01:03:01;;;;;;;13.00;5.30;;;;;;;22.65;61.44;98655.25;5130343;27;20404;-92
2022/07/06 01:05:28;;;;;;;9.63;5.35;;;;;;;22.56;61.94;98646.84;5130859;27;20035;-93
2022/07/06 01:07:54;;;;;;;9.50;5.47;;;;;;;22.49;61.95;98634.75;5130150;28;20066;-92
2022/07/06 01:10:22;;;;;;;12.75;5.78;;;;;;;22.66;61.73;98657.84;5129632;28;20039;-88
2022/07/06 01:12:48;;;;;;;7.75;5.50;;;;;;;22.49;61.94;98633.91;5128649;28;20036;-92
2022/07/06 01:15:18;;;;;;;9.32;5.72;;;;;;;22.62;61.98;98655.47;5130234;27;20051;-92
2022/07/06 01:17:44;;;;;;;7.20;5.43;;;;;;;22.42;62.09;98643.47;5129174;28;20096;-90
2022/07/06 01:20:12;;;;;;;10.70;5.55;;;;;;;22.45;62.76;98671.22;5129930;28;20042;-91
2022/07/06 01:22:38;;;;;;;8.35;4.90;;;;;;;22.46;63.11;98678.34;5130710;28;20520;-93
2022/07/06 01:25:06;;;;;;;8.77;5.15;;;;;;;22.46;62.60;98670.22;5129994;27;20039;-91
2022/07/06 01:27:34;;;;;;;9.73;5.22;;;;;;;22.40;63.40;98676.09;5129752;28;20070;-91
2022/07/06 01:30:00;;;;;;;8.73;5.60;;;;;;;22.24;63.88;98640.34;5130128;27;20394;-91
2022/07/06 01:32:25;;;;;;;8.55;5.28;;;;;;;22.28;63.51;98642.72;5129597;27;20035;-92
2022/07/06 01:34:51;;;;;;;8.02;5.53;;;;;;;22.32;63.54;98641.50;5129571;28;20043;-91
2022/07/06 01:37:18;;;;;;;9.65;5.68;;;;;;;22.38;63.65;98648.28;5131266;27;20040;-91
2022/07/06 01:39:44;;;;;;;9.60;5.75;;;;;;;22.31;63.65;98645.16;5129894;28;20069;-91
2022/07/06 01:42:10;;;;;;;8.90;5.60;;;;;;;22.35;63.47;98645.81;5129867;27;20055;-90
2022/07/06 01:44:36;;;;;;;8.70;5.68;;;;;;;22.26;64.01;98641.97;5129570;28;20039;-92
2022/07/06 01:47:02;;;;;;;8.07;5.55;;;;;;;22.17;63.84;98615.56;5129341;28;20043;-92
2022/07/06 01:49:27;;;;;;;8.73;5.80;;;;;;;22.34;63.27;98634.09;5129532;27;20564;-92
2022/07/06 01:51:53;;;;;;;8.88;5.10;;;;;;;22.43;63.38;98643.38;5128861;28;20078;-91
2022/07/06 01:54:20;;;;;;;7.75;5.18;;;;;;;22.37;63.61;98626.72;5128902;28;20096;-91
2022/07/06 01:56:47;;;;;;;10.50;5.90;;;;;;;22.28;63.69;98618.34;5129481;27;20041;-92
2022/07/06 01:59:12;;;;;;;11.15;5.78;;;;;;;22.32;64.32;98641.50;5129495;27;20078;-93
2022/07/06 02:01:38;;;;;;;15.05;6.65;;;;;;;22.31;63.90;98636.19;5129377;28;20421;-92
2022/07/06 02:04:04;;;;;;;10.60;5.40;;;;;;;22.26;64.09;98641.97;5116782;28;20041;-92
2022/07/06 02:06:30;;;;;;;8.27;5.55;;;;;;;22.18;64.17;98638.09;5114368;28;20140;-90
2022/07/06 02:08:56;;;;;;;10.48;5.38;;;;;;;22.17;64.32;98645.34;5115261;28;20081;-92
2022/07/06 02:11:23;;;;;;;9.93;5.38;;;;;;;22.06;64.81;98646.19;5114971;28;20047;-91
2022/07/06 02:13:49;;;;;;;9.43;5.85;;;;;;;21.99;65.46;98641.31;5115258;27;20473;-93
2022/07/06 02:16:15;;;;;;;8.60;5.45;;;;;;;21.87;65.22;98635.00;5115430;28;20126;-90
2022/07/06 02:18:41;;;;;;;10.95;5.75;;;;;;;21.76;65.29;98608.75;5115102;28;20055;-92
2022/07/06 02:21:07;;;;;;;11.98;5.78;;;;;;;21.85;65.76;98626.16;5112422;28;20499;-92
2022/07/06 02:23:33;;;;;;;6.50;5.30;;;;;;;21.71;65.99;98611.81;5114848;28;20466;-91
2022/07/06 02:25:59;;;;;;;8.73;5.88;;;;;;;21.81;65.36;98624.66;5114703;28;20067;-92
2022/07/06 02:28:26;;;;;;;10.82;5.57;;;;;;;21.76;65.88;98641.25;5116926;27;20065;-91
2022/07/06 02:30:52;;;;;;;7.10;5.10;;;;;;;21.63;65.95;98624.19;5114311;28;20138;-90
2022/07/06 02:33:17;;;;;;;9.88;5.90;;;;;;;21.57;66.46;98628.22;5114806;28;20532;-90
2022/07/06 02:35:43;;;;;;;7.75;5.60;;;;;;;21.49;66.71;98620.69;5115417;27;20048;-90
2022/07/06 02:38:09;;;;;;;8.45;5.60;;;;;;;21.54;66.55;98645.53;5112257;28;20075;-89
2022/07/06 02:40:35;;;;;;;7.47;5.60;;;;;;;21.53;66.65;98643.84;5113742;28;20047;-92
2022/07/06 02:43:02;;;;;;;9.98;5.75;;;;;;;21.60;66.74;98656.88;5113805;27;20128;-89
2022/07/06 02:45:29;;;;;;;10.10;5.82;;;;;;;21.54;67.04;98658.22;5114855;28;20489;-90
2022/07/06 02:47:56;;;;;;;10.25;5.05;;;;;;;21.42;67.07;98649.16;5113324;28;20492;-92
2022/07/06 02:50:21;;;;;;;8.27;6.25;;;;;;;21.52;67.47;98671.00;5114572;27;20062;-92
2022/07/06 02:52:47;;;;;;;8.50;5.47;;;;;;;21.37;67.26;98650.44;5114324;28;20071;-90
2022/07/06 02:55:13;;;;;;;9.75;5.45;;;;;;;21.39;67.73;98671.00;5113755;28;20062;-93
2022/07/06 02:57:39;;;;;;;8.68;5.72;;;;;;;21.38;67.80;98673.78;5113741;28;20036;-92
2022/07/06 03:00:06;;;;;;;10.15;5.95;;;;;;;21.21;67.59;98646.16;5114262;28;20088;-91
2022/07/06 03:02:33;;;;;;;8.00;5.72;;;;;;;21.24;68.13;98642.34;5114887;28;20028;-91
2022/07/06 03:04:59;;;;;;;10.45;5.88;;;;;;;21.34;67.68;98648.84;5111925;28;20096;-92
2022/07/06 03:07:25;;;;;;;7.97;5.70;;;;;;;21.43;67.12;98645.47;5114670;28;20039;-92
2022/07/06 03:09:51;;;;;;;8.25;5.93;;;;;;;21.43;67.55;98658.16;5114321;28;20096;-91
2022/07/06 03:12:16;;;;;;;9.95;6.43;;;;;;;21.42;67.79;98657.25;5114304;28;20493;-92
2022/07/06 03:14:42;;;;;;;10.35;5.93;;;;;;;21.46;67.18;98636.25;5113921;27;20519;-91
2022/07/06 03:17:08;;;;;;;10.60;6.80;;;;;;;21.51;67.25;98656.59;5114419;28;20077;-92
2022/07/06 03:19:35;;;;;;;11.32;6.57;;;;;;;21.39;67.90;98641.22;5115744;27;20038;-92
2022/07/06 03:22:02;;;;;;;10.23;6.30;;;;;;;21.37;68.68;98653.16;5114094;28;20039;-94
2022/07/06 03:24:28;;;;;;;7.00;5.97;;;;;;;21.33;68.49;98647.09;5115016;28;20032;-91
2022/07/06 03:26:53;;;;;;;8.95;5.75;;;;;;;21.32;68.17;98646.22;5114544;28;20040;-92
2022/07/06 03:29:20;;;;;;;7.50;6.20;;;;;;;21.26;68.18;98629.59;5115088;28;20435;-91
2022/07/06 03:31:46;;;;;;;7.57;5.72;;;;;;;21.45;67.71;98645.38;5114724;28;20056;-89
2022/07/06 03:34:12;;;;;;;10.00;6.13;;;;;;;21.56;67.38;98658.06;5114951;28;20074;-94
2022/07/06 03:36:39;;;;;;;7.45;5.82;;;;;;;21.46;67.17;98638.97;5115384;28;20040;-94
2022/07/06 03:39:05;;;;;;;11.45;6.43;;;;;;;21.67;66.83;98658.16;5113750;28;20040;-93
2022/07/06 03:41:35;;;;;;;11.63;6.47;;;;;;;21.71;67.04;98656.97;5114521;28;20543;-91
2022/07/06 03:44:01;;;;;;;9.30;5.88;;;;;;;21.56;66.92;98640.03;5110669;28;20036;-90
2022/07/06 03:46:28;;;;;;;9.57;5.55;;;;;;;21.62;66.78;98658.50;5114324;28;20036;-90
2022/07/06 03:48:54;;;;;;;8.48;5.78;;;;;;;21.56;66.49;98644.53;5113824;28;20214;-89
2022/07/06 03:51:20;;;;;;;9.75;6.22;;;;;;;21.66;66.13;98651.00;5114152;28;20536;-91
2022/07/06 03:53:47;;;;;;;7.78;5.65;;;;;;;21.77;65.71;98666.44;5114259;28;20089;-92
2022/07/06 03:59:14;;;;;;;8.13;5.35;;;;;;;21.91;64.89;98675.28;5123821;27;20724;-93
2022/07/06 04:01:39;;;;;;;11.02;5.65;;;;;;;22.03;64.72;98678.03;5090317;28;20048;-92
2022/07/06 04:04:05;;;;;;;12.88;5.90;;;;;;;22.09;64.17;98666.72;5090164;28;20127;-91
2022/07/06 04:06:31;;;;;;;9.93;5.60;;;;;;;22.13;63.52;98658.25;5090306;28;20032;-90
2022/07/06 04:08:57;;;;;;;9.90;6.00;;;;;;;22.09;63.74;98656.75;5090150;28;20123;-90
2022/07/06 04:11:23;;;;;;;7.85;5.13;;;;;;;22.20;63.72;98672.19;5090197;28;20036;-91
2022/07/06 04:13:48;;;;;;;7.80;5.13;;;;;;;22.24;63.65;98667.44;5090319;28;20036;-93
2022/07/06 04:16:16;;;;;;;7.55;5.35;;;;;;;22.17;63.46;98658.91;5090477;28;20046;-92
2022/07/06 04:18:41;;;;;;;9.93;5.70;;;;;;;22.19;63.56;98661.50;5089755;28;20068;-91
2022/07/06 04:21:08;;;;;;;12.90;5.47;;;;;;;22.26;62.78;98662.78;5090029;28;20518;-92
2022/07/06 04:23:33;;;;;;;11.25;6.18;;;;;;;22.28;62.59;98649.97;5090034;28;20051;-92
2022/07/06 04:25:59;;;;;;;10.38;5.30;;;;;;;22.38;62.08;98655.53;5089731;28;20041;-92
2022/07/06 04:28:25;;;;;;;8.40;5.13;;;;;;;22.34;62.22;98638.66;5089667;28;20048;-92
2022/07/06 04:30:51;;;;;;;7.47;5.68;;;;;;;22.48;63.33;98668.25;5089337;28;20066;-91
2022/07/06 04:33:18;;;;;;;6.63;5.38;;;;;;;22.42;63.94;98663.31;5089490;28;20122;-93
2022/07/06 04:35:44;;;;;;;10.30;6.07;;;;;;;22.32;64.55;98663.16;5088993;28;20497;-94
2022/07/06 04:38:10;;;;;;;9.15;6.40;;;;;;;22.22;64.51;98664.84;5088944;28;20036;-92
2022/07/06 04:40:36;;;;;;;7.28;5.40;;;;;;;22.16;65.38;98667.97;5089170;28;20409;-93
2022/07/06 04:43:02;;;;;;;9.93;5.97;;;;;;;22.24;65.49;98686.41;5089172;28;20038;-92
2022/07/06 04:45:28;;;;;;;12.68;6.65;;;;;;;22.27;65.24;98687.06;5089082;28;20489;-92
2022/07/06 04:47:54;;;;;;;8.75;5.95;;;;;;;22.18;65.96;98657.03;5088880;28;20040;-91
2022/07/06 04:50:21;;;;;;;6.60;5.35;;;;;;;22.28;65.60;98671.66;5089073;28;20082;-89
2022/07/06 04:52:47;;;;;;;9.20;5.80;;;;;;;22.41;66.23;98696.81;5088812;28;20497;-92
2022/07/06 04:55:14;;;;;;;8.68;5.88;;;;;;;22.34;66.45;98685.59;5089107;28;20039;-91
2022/07/06 04:57:40;;;;;;;9.32;6.28;;;;;;;22.41;66.48;98685.97;5087745;28;20045;-92
2022/07/06 05:00:07;;;;;;;10.02;5.90;;;;;;;22.81;65.58;98687.41;5089194;28;20094;-91
2022/07/06 05:02:33;;;;;;;9.00;6.43;;;;;;;23.22;63.04;98686.00;5088850;28;20032;-91
2022/07/06 05:04:59;;;;;;;14.85;6.50;;;;;;;23.81;61.05;98677.56;5088590;28;20044;-90
2022/07/06 05:07:29;;;;;;;10.13;6.25;;;;;;;24.29;58.86;98665.41;5088643;28;20036;-92
2022/07/06 05:09:55;;;;;;;11.10;5.90;;;;;;;24.45;57.54;98654.94;5078374;28;20044;-91
2022/07/06 05:12:20;;;;;;;8.32;5.95;;;;;;;24.86;56.13;98652.38;5075435;28;20036;-93
2022/07/06 05:14:46;;;;;;;10.27;6.00;;;;;;;25.30;56.02;98672.94;5075541;28;20043;-91
2022/07/06 05:17:12;;;;;;;11.63;6.03;;;;;;;25.64;54.98;98688.13;5076324;28;20070;-93
2022/07/06 05:19:38;;;;;;;8.98;6.25;;;;;;;25.75;54.03;98679.81;5074826;28;20132;-91
2022/07/06 05:22:03;;;;;;;11.68;6.75;;;;;;;25.83;53.54;98689.03;5075699;28;20482;-91
2022/07/06 05:24:31;;;;;;;10.55;7.22;;;;;;;25.94;53.65;98670.88;5075292;28;20131;-92
2022/07/06 05:26:56;;;;;;;12.40;6.93;;;;;;;26.22;53.56;98683.66;5073949;28;20063;-91
2022/07/06 05:29:22;;;;;;;9.05;6.50;;;;;;;26.43;52.88;98686.22;5074743;28;20048;-89
2022/07/06 05:31:48;;;;;;;12.65;7.10;;;;;;;26.65;51.77;98689.66;5074627;28;20111;-90
2022/07/06 05:34:14;;;;;;;11.73;6.13;;;;;;;26.82;51.18;98694.38;5075163;28;20397;-91
2022/07/06 05:36:39;;;;;;;13.65;6.13;;;;;;;26.82;50.36;98679.88;5075721;28;20037;-91
2022/07/06 05:39:05;;;;;;;10.02;6.05;;;;;;;26.97;50.65;98675.66;5075584;28;20131;-92
2022/07/06 05:41:32;;;;;;;9.80;5.88;;;;;;;26.90;50.84;98676.44;5075811;28;20037;-92
2022/07/06 05:43:58;;;;;;;9.73;5.68;;;;;;;27.20;51.13;98687.09;5075161;28;20401;-91
2022/07/06 05:46:24;;;;;;;9.15;5.60;;;;;;;26.50;52.45;98691.09;5075779;28;20040;-93
2022/07/06 05:51:49;;;;;;;9.40;5.68;;;;;;;25.09;55.41;98683.88;5103995;27;20372;-89
2022/07/06 05:54:15;;;;;;;11.10;6.40;;;;;;;24.83;55.74;98685.28;5101006;28;20051;-92
2022/07/06 05:56:41;;;;;;;7.85;5.57;;;;;;;24.54;56.87;98673.22;5103939;28;20515;-92
2022/07/06 05:59:07;;;;;;;9.75;6.30;;;;;;;24.80;56.24;98689.97;5101619;28;20814;-90
2022/07/06 06:01:33;;;;;;;12.45;5.45;;;;;;;25.15;55.77;98698.78;5101584;28;20044;-91
2022/07/06 06:03:59;;;;;;;12.95;5.50;;;;;;;25.48;54.46;98703.13;5099667;28;20428;-91
2022/07/06 06:06:25;;;;;;;12.93;5.55;;;;;;;25.82;54.09;98683.69;5099751;28;20040;-90
2022/07/06 06:08:52;;;;;;;6.55;5.00;;;;;;;26.06;51.62;98677.03;5098938;28;20049;-90
2022/07/06 06:11:18;;;;;;;10.13;5.30;;;;;;;26.22;52.13;98674.63;5101724;28;20035;-91
2022/07/06 06:13:44;;;;;;;9.43;5.10;;;;;;;26.70;50.95;98691.97;5097034;28;20040;-89
2022/07/06 06:16:10;;;;;;;8.40;5.43;;;;;;;26.83;50.65;98687.94;5100493;28;20062;-91
2022/07/06 06:18:35;;;;;;;7.32;5.25;;;;;;;26.94;50.57;98683.31;5100702;28;20052;-90
2022/07/06 06:21:01;;;;;;;12.18;5.30;;;;;;;27.12;50.46;98689.72;5100200;28;20110;-90
2022/07/06 06:23:27;;;;;;;7.97;4.70;;;;;;;26.95;51.02;98698.66;5097923;28;20507;-90
2022/07/06 06:25:54;;;;;;;11.65;5.30;;;;;;;27.09;48.62;98698.22;5097303;28;20040;-93
2022/07/06 06:28:20;;;;;;;8.27;4.85;;;;;;;27.07;48.61;98681.13;5095387;28;20060;-90
2022/07/06 06:30:46;;;;;;;10.93;5.15;;;;;;;27.28;48.66;98666.41;5100026;28;20128;-90
2022/07/06 06:33:13;;;;;;;11.40;4.90;;;;;;;27.62;47.62;98694.84;5097665;28;20032;-92
2022/07/06 06:35:43;;;;;;;9.40;4.80;;;;;;;27.87;47.09;98686.97;5100977;28;20123;-92
2022/07/06 06:38:09;;;;;;;6.85;5.00;;;;;;;27.37;46.86;98680.03;5099798;28;20060;-93
2022/07/06 06:40:34;;;;;;;9.13;4.80;;;;;;;26.94;48.26;98664.22;5100459;28;20569;-90
2022/07/06 06:43:02;;;;;;;7.15;4.50;;;;;;;27.00;46.92;98679.97;5102194;28;20039;-93
2022/07/06 06:45:28;;;;;;;7.22;4.60;;;;;;;27.03;47.16;98679.69;5097431;28;20040;-91
2022/07/06 06:47:53;;;;;;;7.45;4.35;;;;;;;27.15;47.34;98678.50;5096681;28;20047;-93
2022/07/06 06:50:20;;;;;;;8.70;5.05;;;;;;;27.09;46.04;98670.03;5102639;28;20079;-92
2022/07/06 06:52:46;;;;;;;7.07;4.40;;;;;;;27.27;45.85;98689.28;5101971;28;20054;-92
2022/07/06 06:55:12;;;;;;;6.05;4.65;;;;;;;27.14;46.71;98684.97;5098565;28;20048;-94
2022/07/06 06:57:38;;;;;;;7.75;4.53;;;;;;;27.13;46.28;98671.44;5100732;28;20038;-91
2022/07/06 07:00:06;;;;;;;8.15;4.35;;;;;;;27.42;45.80;98683.16;5100029;28;20170;-94
2022/07/06 07:02:32;;;;;;;7.57;4.28;;;;;;;27.54;45.70;98677.50;5090007;28;20094;-93
2022/07/06 07:04:59;;;;;;;9.20;4.35;;;;;;;27.62;44.07;98672.13;5086860;28;20028;-90
2022/07/06 07:07:25;;;;;;;6.47;4.07;;;;;;;27.62;44.38;98680.31;5088174;28;20086;-94
2022/07/06 07:09:50;;;;;;;5.75;4.00;;;;;;;27.63;43.90;98687.53;5090239;28;20451;-94
2022/07/06 07:12:16;;;;;;;6.07;4.30;;;;;;;27.35;44.70;98679.31;5090129;28;20060;-92
2022/07/06 07:14:43;;;;;;;6.25;3.75;;;;;;;27.57;44.27;98675.31;5088514;28;20079;-92
2022/07/06 07:17:11;;;;;;;11.27;4.30;;;;;;;27.53;43.88;98684.84;5091385;28;20044;-93
2022/07/06 07:19:37;;;;;;;6.65;3.83;;;;;;;27.66;43.54;98674.41;5088442;28;20067;-93
2022/07/06 07:22:03;;;;;;;5.55;4.05;;;;;;;27.74;43.96;98687.31;5086901;28;20075;-91
2022/07/06 07:24:29;;;;;;;6.00;3.90;;;;;;;28.11;42.82;98683.66;5084327;28;20036;-91
2022/07/06 07:26:55;;;;;;;6.07;3.55;;;;;;;28.26;42.27;98676.63;5083238;28;20105;-93
2022/07/06 07:29:21;;;;;;;9.85;4.03;;;;;;;28.02;42.29;98673.66;5082729;28;20040;-91
2022/07/06 07:31:46;;;;;;;9.48;4.20;;;;;;;28.37;40.59;98678.25;5081866;28;20059;-94
2022/07/06 07:34:14;;;;;;;6.93;3.72;;;;;;;28.47;40.79;98673.56;5084239;28;20028;-92
2022/07/06 07:36:39;;;;;;;7.55;3.88;;;;;;;28.59;40.93;98676.09;5085871;28;20032;-91
2022/07/06 07:39:05;;;;;;;6.18;3.85;;;;;;;28.74;40.39;98692.78;5084832;28;20086;-92
2022/07/06 07:41:31;;;;;;;6.95;3.70;;;;;;;28.57;40.10;98689.06;5083998;28;20077;-93
2022/07/06 07:43:57;;;;;;;6.80;3.80;;;;;;;28.47;40.28;98700.03;5087921;28;20119;-91
2022/07/06 07:46:23;;;;;;;7.18;3.72;;;;;;;28.76;38.96;98666.13;5086296;28;20072;-92
2022/07/06 07:48:49;;;;;;;8.23;4.20;;;;;;;28.77;39.46;98682.38;5085930;28;20049;-90
2022/07/06 07:51:16;;;;;;;6.78;4.25;;;;;;;28.98;39.68;98687.47;5085301;28;20052;-92
2022/07/06 07:53:41;;;;;;;5.53;3.75;;;;;;;28.97;40.19;98691.22;5083752;28;20102;-92
2022/07/06 07:56:07;;;;;;;5.53;3.42;;;;;;;29.43;39.39;98701.97;5087409;28;20420;-91
2022/07/06 07:58:33;;;;;;;6.82;3.58;;;;;;;29.17;38.64;98685.56;5091672;28;20132;-92
2022/07/06 08:01:00;;;;;;;5.38;3.65;;;;;;;28.94;39.15;98663.34;5087602;28;20178;-91
2022/07/06 08:03:26;;;;;;;7.90;4.00;;;;;;;28.99;38.94;98655.47;5092708;28;20044;-92
2022/07/06 08:05:52;;;;;;;7.68;3.60;;;;;;;29.06;38.25;98659.28;5092845;28;20038;-93
2022/07/06 08:08:20;;;;;;;7.68;3.78;;;;;;;29.24;38.38;98687.50;5091330;28;20048;-94
2022/07/06 08:10:46;;;;;;;7.43;3.50;;;;;;;29.41;38.03;98666.53;5093980;28;20831;-90
2022/07/06 08:13:13;;;;;;;7.40;3.80;;;;;;;29.37;38.46;98656.94;5093722;28;20566;-90
2022/07/06 08:15:39;;;;;;;7.22;4.00;;;;;;;29.57;38.54;98664.88;5094286;28;20150;-92
2022/07/06 08:18:05;;;;;;;9.23;3.78;;;;;;;29.95;38.14;98649.78;5094490;28;20149;-90
2022/07/06 08:20:31;;;;;;;8.60;3.90;;;;;;;30.30;37.89;98667.00;5097723;28;20061;-91
2022/07/06 08:22:59;;;;;;;5.63;3.88;;;;;;;30.25;37.29;98664.75;5095461;28;20050;-91
2022/07/06 08:25:26;;;;;;;6.72;3.60;;;;;;;30.09;37.78;98653.75;5100264;28;20047;-91
2022/07/06 08:27:52;;;;;;;9.73;4.07;;;;;;;30.21;38.02;98646.91;5096726;28;20052;-91
2022/07/06 08:30:18;;;;;;;5.25;3.80;;;;;;;30.43;36.74;98628.94;5092939;28;20072;-90
2022/07/06 08:32:44;;;;;;;6.13;3.53;;;;;;;30.41;37.06;98641.13;5096833;28;20036;-90
2022/07/06 08:35:10;;;;;;;9.07;3.50;;;;;;;30.40;35.80;98637.50;5093247;28;20105;-88
2022/07/06 08:37:36;;;;;;;6.93;3.50;;;;;;;30.89;34.57;98636.66;5092864;28;20051;-90
2022/07/06 08:40:03;;;;;;;7.43;3.75;;;;;;;31.03;33.93;98654.28;5090122;28;20048;-91
2022/07/06 08:42:33;;;;;;;6.35;3.38;;;;;;;31.21;34.11;98662.34;5092488;28;20040;-92
2022/07/06 08:45:00;;;;;;;5.88;3.38;;;;;;;31.15;34.88;98669.38;5088681;28;20032;-91
2022/07/06 08:47:27;;;;;;;6.13;3.65;;;;;;;30.97;35.30;98658.59;5084555;28;20040;-90
2022/07/06 08:49:53;;;;;;;7.32;3.50;;;;;;;31.23;34.92;98654.75;5081550;28;20468;-93
2022/07/06 08:52:19;;;;;;;6.55;3.35;;;;;;;30.87;35.91;98661.53;5087591;28;20033;-92
2022/07/06 08:54:45;;;;;;;6.47;3.30;;;;;;;31.25;34.60;98672.78;5087724;28;20375;-92
2022/07/06 08:57:12;;;;;;;6.32;3.85;;;;;;;31.18;34.87;98663.50;5082406;28;20037;-91
2022/07/06 08:59:40;;;;;;;5.05;3.50;;;;;;;31.30;34.74;98681.34;5089171;28;20516;-91
2022/07/06 09:02:06;;;;;;;6.88;3.70;;;;;;;30.97;34.55;98663.22;5082666;28;20036;-92
2022/07/06 09:04:33;;;;;;;6.28;3.70;;;;;;;31.37;34.03;98655.91;5088589;28;20062;-92
2022/07/06 09:06:59;;;;;;;5.82;3.33;;;;;;;31.75;33.76;98675.34;5080844;28;20040;-91
2022/07/06 09:09:28;;;;;;;6.82;3.50;;;;;;;31.59;33.49;98646.91;5088322;28;20071;-93
2022/07/06 09:11:54;;;;;;;7.10;3.83;;;;;;;31.53;33.61;98664.09;5085062;28;20075;-93
2022/07/06 09:14:20;;;;;;;5.32;3.40;;;;;;;31.60;33.35;98664.25;5087378;28;20060;-93
2022/07/06 09:16:51;;;;;;;7.15;3.30;;;;;;;31.66;32.60;98658.91;5081979;28;20036;-93
2022/07/06 09:19:17;;;;;;;5.05;3.30;;;;;;;31.50;33.35;98653.47;5081724;28;20050;-92
2022/07/06 09:21:42;;;;;;;5.60;3.30;;;;;;;31.40;33.03;98658.28;5089932;28;20044;-92
2022/07/06 09:24:10;;;;;;;3.83;3.17;;;;;;;31.73;32.70;98637.06;5084212;28;20048;-92
2022/07/06 09:26:36;;;;;;;4.95;3.38;;;;;;;32.16;32.18;98654.00;5082635;28;20075;-93
2022/07/06 09:29:02;;;;;;;10.15;3.88;;;;;;;31.47;32.58;98640.97;5086364;28;20033;-93
2022/07/06 09:31:28;;;;;;;6.85;3.83;;;;;;;31.77;32.51;98643.88;5081218;28;20063;-94
2022/07/06 09:33:56;;;;;;;5.25;3.75;;;;;;;32.01;32.18;98656.69;5086085;28;20047;-91
2022/07/06 09:36:49;;;;;;;5.47;3.42;;;;;;;32.41;31.09;98632.66;5084803;28;20418;-92
2022/07/06 09:39:17;;;;;;;7.25;4.00;;;;;;;31.93;32.32;98638.31;5009848;28;20046;-93
2022/07/06 09:41:43;;;;;;;7.32;3.90;;;;;;;31.39;32.70;98635.47;5012462;28;20073;-91
2022/07/06 09:44:10;;;;;;;6.32;3.65;;;;;;;32.06;32.40;98643.25;5010938;28;20423;-91
2022/07/06 09:46:38;;;;;;;7.80;3.40;;;;;;;32.28;31.30;98616.75;4994777;28;20557;-92
2022/07/06 09:49:06;;;;;;;5.95;3.75;;;;;;;32.40;30.98;98621.81;5009500;28;20046;-91
2022/07/06 09:51:35;;;;;;;7.43;3.53;;;;;;;32.49;30.91;98629.84;5011633;28;20054;-92
2022/07/06 09:54:06;;;;;;;7.38;3.78;;;;;;;32.02;32.33;98613.53;5011552;28;20033;-92
2022/07/06 09:56:37;;;;;;;4.53;3.38;;;;;;;32.28;31.30;98624.16;5010892;28;20132;-92
2022/07/06 09:59:07;;;;;;;7.60;3.65;;;;;;;32.63;31.21;98625.44;5010634;28;20173;-91
2022/07/06 10:01:33;;;;;;;5.95;3.50;;;;;;;33.06;30.80;98617.44;5010894;28;20550;-93
2022/07/06 10:03:59;;;;;;;6.40;3.70;;;;;;;33.33;30.43;98626.09;5010880;28;20124;-91
2022/07/06 10:06:27;;;;;;;5.45;3.88;;;;;;;33.62;29.56;98610.59;5010689;28;20050;-91
2022/07/06 10:08:54;;;;;;;5.57;3.28;;;;;;;33.73;29.82;98618.38;5009903;28;20046;-93
2022/07/06 10:11:21;;;;;;;8.23;3.40;;;;;;;33.72;28.70;98606.50;5009363;28;20062;-92
2022/07/06 10:13:50;;;;;;;8.10;3.75;;;;;;;33.60;29.09;98613.56;5010033;28;20427;-92
2022/07/06 10:16:16;;;;;;;4.97;3.15;;;;;;;33.76;29.19;98617.97;5081682;28;20044;-93
2022/07/06 10:18:44;;;;;;;5.30;3.40;;;;;;;33.99;28.71;98620.56;5082155;28;20028;-92
2022/07/06 10:21:10;;;;;;;6.50;3.53;;;;;;;34.10;27.54;98602.66;5081079;28;20060;-94
2022/07/06 10:23:39;;;;;;;7.35;3.60;;;;;;;34.24;27.19;98589.84;5082345;28;20097;-90
2022/07/06 10:26:07;;;;;;;4.85;3.50;;;;;;;34.21;27.23;98606.81;5083488;28;20127;-92
2022/07/06 10:28:34;;;;;;;6.97;3.72;;;;;;;34.48;27.80;98611.53;5085080;28;20051;-92
2022/07/06 10:31:00;;;;;;;6.05;3.58;;;;;;;34.44;27.31;98607.47;5087022;28;20043;-94
2022/07/06 10:33:26;;;;;;;9.93;3.60;;;;;;;33.80;27.72;98613.78;5082323;28;20036;-91
2022/07/06 10:35:52;;;;;;;7.78;3.80;;;;;;;33.38;28.20;98604.34;5089703;28;20044;-91
2022/07/06 10:38:19;;;;;;;7.05;3.70;;;;;;;33.59;28.54;98630.25;5090807;28;20141;-92
2022/07/06 10:43:46;;;;;;;5.57;3.60;;;;;;;34.20;26.80;98600.47;5120087;27;20397;-90
2022/07/06 10:46:15;;;;;;;4.72;3.50;;;;;;;34.43;26.07;98616.78;5090433;28;20486;-92
2022/07/06 10:48:42;;;;;;;7.28;3.60;;;;;;;34.04;26.20;98622.75;5090296;28;20056;-90
2022/07/06 10:51:08;;;;;;;5.10;3.40;;;;;;;33.89;24.95;98607.09;5090541;28;20047;-93
2022/07/06 10:53:36;;;;;;;5.63;3.40;;;;;;;34.00;26.02;98604.88;5088793;28;20046;-92
2022/07/06 10:56:04;;;;;;;7.13;3.50;;;;;;;33.71;24.57;98603.91;5083541;28;20043;-90
2022/07/06 10:58:41;;;;;;;7.13;3.10;;;;;;;33.86;23.95;98601.13;5090009;28;20517;-94
2022/07/06 11:01:09;;;;;;;7.40;3.17;;;;;;;33.82;23.36;98610.84;5090815;28;20048;-93
2022/07/06 11:03:39;;;;;;;;;;;;;;;34.06;24.38;98610.47;5086586;28;20111;-92
2022/07/06 11:06:11;;;;;;;9.38;3.22;;;;;;;33.53;24.46;98598.81;5091634;28;20336;-94
2022/07/06 11:08:54;;;;;;;5.20;2.90;;;;;;;33.84;24.10;98608.75;5087269;28;20047;-90
2022/07/06 11:11:22;;;;;;;5.35;2.90;;;;;;;33.33;23.37;98612.31;5089529;28;20422;-92
2022/07/06 11:14:01;;;;;;;4.93;2.88;;;;;;;33.61;22.74;98601.47;5090270;28;20032;-94
2022/07/06 11:16:33;;;;;;;7.13;3.03;;;;;;;33.22;23.39;98588.84;5091465;28;20051;-92
2022/07/06 11:19:02;;;;;;;9.27;3.35;;;;;;;33.11;24.37;98609.47;5091129;28;20425;-91
2022/07/06 11:21:45;;;;;;;3.83;2.88;;;;;;;33.28;25.29;98599.09;5087830;28;20494;-91
2022/07/06 11:24:14;;;;;;;5.22;3.30;;;;;;;33.66;24.32;98600.88;5087918;28;20521;-91
2022/07/06 11:26:41;;;;;;;4.05;3.00;;;;;;;33.47;23.84;98585.78;5089404;28;20048;-90
2022/07/06 11:29:10;;;;;;;7.30;3.33;;;;;;;33.82;23.96;98583.25;5089313;28;20036;-93
2022/07/06 11:31:39;;;;;;;4.70;3.20;;;;;;;33.15;24.47;98587.91;5089740;28;20345;-92
2022/07/06 11:34:06;;;;;;;4.47;2.90;;;;;;;33.32;24.84;98588.56;5089321;28;20045;-91
2022/07/06 11:36:32;;;;;;;5.18;3.42;;;;;;;32.43;25.48;98570.03;5090596;28;20401;-92
2022/07/06 11:38:58;;;;;;;4.47;3.22;;;;;;;32.76;24.51;98560.63;5090365;28;20044;-92
2022/07/06 11:41:24;;;;;;;5.70;3.67;;;;;;;33.39;24.57;98572.09;5090090;28;20044;-91